createdAt,value
2022-12-08T00:01:39.605Z,54.23
2022-12-08T00:04:07.188Z,54.21
2022-12-08T00:06:53.320Z,54.23
2022-12-08T00:09:23.431Z,54.17
2022-12-08T00:11:55.633Z,54.18
2022-12-08T00:14:27.551Z,54.29
2022-12-08T00:16:55.331Z,54.30
2022-12-08T00:19:23.187Z,54.37
2022-12-08T00:21:50.865Z,54.31
2022-12-08T00:24:18.472Z,54.23
2022-12-08T00:26:47.293Z,54.27
2022-12-08T00:29:17.556Z,54.24
2022-12-08T00:31:45.339Z,54.27
2022-12-08T00:34:13.156Z,54.21
2022-12-08T00:36:40.719Z,54.17
2022-12-08T00:39:08.171Z,54.22
2022-12-08T00:41:53.265Z,54.26
2022-12-08T00:44:22.072Z,54.19
2022-12-08T00:46:49.592Z,54.15
2022-12-08T00:49:17.579Z,54.14
2022-12-08T00:51:45.039Z,54.03
2022-12-08T00:54:12.512Z,54.27
2022-12-08T00:56:39.987Z,54.16
2022-12-08T00:59:07.599Z,54.35
2022-12-08T01:01:36.695Z,54.14
2022-12-08T01:04:04.950Z,54.23
2022-12-08T01:06:32.444Z,54.23
2022-12-08T01:08:59.918Z,54.27
2022-12-08T01:11:27.378Z,54.20
2022-12-08T01:13:55.129Z,54.17
2022-12-08T01:16:22.777Z,54.12
2022-12-08T01:18:51.744Z,54.20
2022-12-08T01:21:19.510Z,54.13
2022-12-08T01:23:47.068Z,54.20
2022-12-08T01:26:15.647Z,54.09
2022-12-08T01:28:43.279Z,54.15
2022-12-08T01:31:12.698Z,54.21
2022-12-08T01:33:40.229Z,54.10
2022-12-08T01:36:09.978Z,54.16
2022-12-08T01:38:37.432Z,54.16
2022-12-08T01:41:04.908Z,54.30
2022-12-08T01:43:51.215Z,54.10
2022-12-08T01:46:18.751Z,54.15
2022-12-08T01:48:46.228Z,54.11
2022-12-08T01:51:15.658Z,54.11
2022-12-08T01:53:43.192Z,54.12
2022-12-08T01:56:11.852Z,54.15
2022-12-08T01:58:41.013Z,54.10
2022-12-08T02:01:08.589Z,54.15
2022-12-08T02:03:39.353Z,54.16
2022-12-08T02:06:07.366Z,54.16
2022-12-08T02:08:36.174Z,54.13
2022-12-08T02:11:03.652Z,54.07
2022-12-08T02:13:32.598Z,54.16
2022-12-08T02:16:02.247Z,54.08
2022-12-08T02:18:44.010Z,54.07
2022-12-08T02:21:12.564Z,54.06
2022-12-08T02:23:48.357Z,54.03
2022-12-08T02:26:52.783Z,54.08
2022-12-08T02:29:36.887Z,54.05
2022-12-08T02:32:16.265Z,54.14
2022-12-08T02:34:45.365Z,54.10
2022-12-08T02:37:15.183Z,54.05
2022-12-08T02:39:43.805Z,54.18
2022-12-08T02:42:13.122Z,54.20
2022-12-08T02:44:42.287Z,54.08
2022-12-08T02:47:10.926Z,54.19
2022-12-08T02:49:38.437Z,54.13
2022-12-08T02:52:08.844Z,53.87
2022-12-08T02:54:36.319Z,54.06
2022-12-08T02:57:23.607Z,53.98
2022-12-08T02:59:58.520Z,54.05
2022-12-08T03:02:33.767Z,54.11
2022-12-08T03:05:04.754Z,54.06
2022-12-08T03:07:35.184Z,54.06
2022-12-08T03:10:06.579Z,54.21
2022-12-08T03:12:35.837Z,54.00
2022-12-08T03:15:05.071Z,54.05
2022-12-08T03:17:32.581Z,53.96
2022-12-08T03:20:01.005Z,54.15
2022-12-08T03:22:28.771Z,53.88
2022-12-08T03:24:57.606Z,54.04
2022-12-08T03:27:26.023Z,54.03
2022-12-08T03:29:54.912Z,54.13
2022-12-08T03:32:25.009Z,53.96
2022-12-08T03:34:53.704Z,54.08
2022-12-08T03:37:21.484Z,53.94
2022-12-08T03:39:49.044Z,54.07
2022-12-08T03:42:17.824Z,54.01
2022-12-08T03:44:45.307Z,54.08
2022-12-08T03:47:12.765Z,54.12
2022-12-08T03:49:40.741Z,54.08
2022-12-08T03:52:08.209Z,54.03
2022-12-08T03:54:35.673Z,53.96
2022-12-08T03:57:03.152Z,53.96
2022-12-08T03:59:31.975Z,54.11
2022-12-08T04:01:59.647Z,54.11
2022-12-08T04:04:27.189Z,54.00
2022-12-08T04:06:54.688Z,54.11
2022-12-08T04:09:22.141Z,54.20
2022-12-08T04:11:49.615Z,54.07
2022-12-08T04:14:17.099Z,54.13
2022-12-08T04:16:45.924Z,54.13
2022-12-08T04:19:13.411Z,54.08
2022-12-08T04:21:40.884Z,54.10
2022-12-08T04:24:08.655Z,54.03
2022-12-08T04:26:36.129Z,54.02
2022-12-08T04:29:03.824Z,54.17
2022-12-08T04:31:31.412Z,54.12
2022-12-08T04:34:00.240Z,53.94
2022-12-08T04:36:27.831Z,54.01
2022-12-08T04:38:55.292Z,54.02
2022-12-08T04:41:22.782Z,54.04
2022-12-08T04:43:50.341Z,53.86
2022-12-08T04:46:17.879Z,54.03
2022-12-08T04:48:45.378Z,54.05
2022-12-08T04:51:16.604Z,54.00
2022-12-08T04:53:46.766Z,53.97
2022-12-08T04:56:14.832Z,54.02
2022-12-08T04:58:42.350Z,53.94
2022-12-08T05:01:09.845Z,53.98
2022-12-08T05:03:37.523Z,53.86
2022-12-08T05:06:05.120Z,54.00
2022-12-08T05:08:34.412Z,54.01
2022-12-08T05:11:05.177Z,54.00
2022-12-08T05:13:32.715Z,54.07
2022-12-08T05:16:05.029Z,54.11
2022-12-08T05:18:32.566Z,54.09
2022-12-08T05:21:00.203Z,53.96
2022-12-08T05:23:27.733Z,54.01
2022-12-08T05:25:56.506Z,53.89
2022-12-08T05:31:11.744Z,53.89
2022-12-08T05:33:39.244Z,53.80
2022-12-08T05:36:07.240Z,53.87
2022-12-08T05:38:34.797Z,53.88
2022-12-08T05:41:03.605Z,53.77
2022-12-08T05:43:31.042Z,53.68
2022-12-08T05:45:58.568Z,53.68
2022-12-08T05:48:26.157Z,53.81
2022-12-08T05:50:53.681Z,53.65
2022-12-08T05:53:21.372Z,53.83
2022-12-08T05:55:48.934Z,53.85
2022-12-08T05:58:18.648Z,53.71
2022-12-08T06:00:46.784Z,53.68
2022-12-08T06:03:14.443Z,53.73
2022-12-08T06:05:42.093Z,53.57
2022-12-08T06:08:11.733Z,53.70
2022-12-08T06:10:39.442Z,53.65
2022-12-08T06:13:06.906Z,53.50
2022-12-08T06:15:36.518Z,53.44
2022-12-08T06:18:04.035Z,53.48
2022-12-08T06:20:31.512Z,53.55
2022-12-08T06:22:58.985Z,53.53
2022-12-08T06:25:26.601Z,53.54
2022-12-08T06:27:54.095Z,53.61
2022-12-08T06:30:21.660Z,53.53
2022-12-08T06:32:50.441Z,53.63
2022-12-08T06:35:17.990Z,53.57
2022-12-08T06:37:45.475Z,53.55
2022-12-08T06:40:13.772Z,53.57
2022-12-08T06:42:47.575Z,53.51
2022-12-08T06:45:15.945Z,53.65
2022-12-08T06:47:43.421Z,53.44
2022-12-08T06:50:12.962Z,53.59
2022-12-08T06:52:49.255Z,53.57
2022-12-08T06:55:50.813Z,53.71
2022-12-08T06:58:11.128Z,53.58
2022-12-08T07:00:38.638Z,53.51
2022-12-08T07:03:06.083Z,53.43
2022-12-08T07:05:34.840Z,53.52
2022-12-08T07:08:02.374Z,53.53
2022-12-08T07:10:29.952Z,53.53
2022-12-08T07:12:57.415Z,53.52
2022-12-08T07:15:24.879Z,51.65
2022-12-08T07:17:56.393Z,53.31
2022-12-08T07:20:27.153Z,54.47
2022-12-08T07:22:55.895Z,54.24
2022-12-08T07:25:23.360Z,54.21
2022-12-08T07:27:51.659Z,54.25
2022-12-08T07:30:19.372Z,54.33
2022-12-08T07:32:46.855Z,54.53
2022-12-08T07:35:14.317Z,54.78
2022-12-08T07:37:41.787Z,54.78
2022-12-08T07:40:11.889Z,55.07
2022-12-08T07:42:39.337Z,55.21
2022-12-08T07:45:08.091Z,55.28
2022-12-08T07:47:35.549Z,55.06
2022-12-08T07:50:04.374Z,55.50
2022-12-08T07:52:32.111Z,55.27
2022-12-08T07:54:59.559Z,55.29
2022-12-08T07:57:28.323Z,55.30
2022-12-08T07:59:55.752Z,55.32
2022-12-08T08:02:25.160Z,55.66
2022-12-08T08:04:53.281Z,55.71
2022-12-08T08:07:20.849Z,55.53
2022-12-08T08:09:48.276Z,55.67
2022-12-08T08:12:31.373Z,55.69
2022-12-08T08:15:00.437Z,55.72
2022-12-08T08:17:28.018Z,55.62
2022-12-08T08:19:55.560Z,55.78
2022-12-08T08:22:23.023Z,55.71
2022-12-08T08:24:50.554Z,55.28
2022-12-08T08:27:18.020Z,54.86
2022-12-08T08:29:45.496Z,55.36
2022-12-08T08:32:14.285Z,55.29
2022-12-08T08:34:41.762Z,55.51
2022-12-08T08:37:09.265Z,55.60
2022-12-08T08:39:36.790Z,56.09
2022-12-08T08:42:04.348Z,56.39
2022-12-08T08:44:31.783Z,56.70
2022-12-08T08:46:59.237Z,56.87
2022-12-08T08:49:28.275Z,57.56
2022-12-08T08:51:55.726Z,56.21
2022-12-08T08:54:23.273Z,54.59
2022-12-08T08:56:50.764Z,53.65
2022-12-08T08:59:18.200Z,54.03
2022-12-08T09:01:45.760Z,54.83
2022-12-08T09:04:13.276Z,53.04
2022-12-08T09:06:43.085Z,53.72
2022-12-08T09:09:10.564Z,54.55
2022-12-08T09:11:38.042Z,55.40
2022-12-08T09:14:05.472Z,53.18
2022-12-08T09:16:37.493Z,54.08
2022-12-08T09:19:07.904Z,55.57
2022-12-08T09:21:35.364Z,55.78
2022-12-08T09:24:04.256Z,55.57
2022-12-08T09:26:31.732Z,55.94
2022-12-08T09:28:59.187Z,55.80
2022-12-08T09:31:26.689Z,55.55
2022-12-08T09:33:54.175Z,55.90
2022-12-08T09:36:21.824Z,55.71
2022-12-08T09:38:50.934Z,55.90
2022-12-08T09:41:23.052Z,56.02
2022-12-08T09:43:58.035Z,56.14
2022-12-08T09:46:26.280Z,56.31
2022-12-08T09:48:55.890Z,56.26
2022-12-08T09:51:24.413Z,56.38
2022-12-08T09:53:52.918Z,56.27
2022-12-08T09:56:23.354Z,56.46
2022-12-08T09:58:52.525Z,56.48
2022-12-08T10:01:20.541Z,56.58
2022-12-08T10:03:48.089Z,56.51
2022-12-08T10:06:20.220Z,56.55
2022-12-08T10:08:50.252Z,56.44
2022-12-08T10:11:24.515Z,56.22
2022-12-08T10:13:54.158Z,56.30
2022-12-08T10:16:29.483Z,56.38
2022-12-08T10:19:00.345Z,56.22
2022-12-08T10:21:28.289Z,56.42
2022-12-08T10:23:59.045Z,56.59
2022-12-08T10:26:28.039Z,56.46
2022-12-08T10:29:01.115Z,56.27
2022-12-08T10:31:28.739Z,56.15
2022-12-08T10:33:59.090Z,56.11
2022-12-08T10:36:45.264Z,54.81
2022-12-08T10:39:30.018Z,52.01
2022-12-08T10:42:03.589Z,52.23
2022-12-08T10:44:31.030Z,53.06
2022-12-08T10:46:58.521Z,53.64
2022-12-08T10:49:27.719Z,53.84
2022-12-08T10:51:55.284Z,54.08
2022-12-08T10:54:28.604Z,54.11
2022-12-08T10:56:56.352Z,54.10
2022-12-08T10:59:25.607Z,54.19
2022-12-08T11:01:53.922Z,54.08
2022-12-08T11:04:22.587Z,53.94
2022-12-08T11:06:50.836Z,54.00
2022-12-08T11:09:34.768Z,54.07
2022-12-08T11:12:06.862Z,54.09
2022-12-08T11:14:46.256Z,54.17
2022-12-08T11:17:14.668Z,53.98
2022-12-08T11:19:43.039Z,54.06
2022-12-08T11:22:22.055Z,54.10
2022-12-08T11:24:58.792Z,54.14
2022-12-08T11:27:26.244Z,54.24
2022-12-08T11:29:54.996Z,54.22
2022-12-08T11:32:22.431Z,52.80
2022-12-08T11:34:52.593Z,52.25
2022-12-08T11:37:25.871Z,52.71
2022-12-08T11:39:57.110Z,53.17
2022-12-08T11:42:26.339Z,53.36
2022-12-08T11:44:58.116Z,53.57
2022-12-08T11:47:26.698Z,53.49
2022-12-08T11:49:56.604Z,53.60
2022-12-08T11:52:27.182Z,53.47
2022-12-08T11:54:58.356Z,53.44
2022-12-08T11:57:25.811Z,53.53
2022-12-08T11:59:55.433Z,53.55
2022-12-08T12:02:24.005Z,53.62
2022-12-08T12:04:53.593Z,53.64
2022-12-08T12:07:47.122Z,53.62
2022-12-08T12:10:28.907Z,53.67
2022-12-08T12:13:08.593Z,53.49
2022-12-08T12:16:08.684Z,53.58
2022-12-08T12:18:38.602Z,53.67
2022-12-08T12:21:07.960Z,53.68
2022-12-08T12:23:37.311Z,53.74
2022-12-08T12:26:06.871Z,53.70
2022-12-08T12:28:40.755Z,53.50
2022-12-08T12:31:11.005Z,53.60
2022-12-08T12:33:38.482Z,53.65
2022-12-08T12:36:07.467Z,53.72
2022-12-08T12:38:53.373Z,53.64
2022-12-08T12:41:25.543Z,53.45
2022-12-08T12:44:13.511Z,53.56
2022-12-08T12:46:54.118Z,53.62
2022-12-08T12:49:52.938Z,53.43
2022-12-08T12:52:47.736Z,53.48
2022-12-08T12:55:25.946Z,53.51
2022-12-08T12:57:54.611Z,53.61
2022-12-08T13:00:22.985Z,53.55
2022-12-08T13:02:51.912Z,53.46
2022-12-08T13:05:20.680Z,53.64
2022-12-08T13:07:51.691Z,53.63
2022-12-08T13:10:20.935Z,53.70
2022-12-08T13:13:02.941Z,53.50
2022-12-08T13:15:35.372Z,53.45
2022-12-08T13:18:04.189Z,53.52
2022-12-08T13:20:31.922Z,53.52
2022-12-08T13:23:04.617Z,53.43
2022-12-08T13:26:12.464Z,53.53
2022-12-08T13:29:16.527Z,53.33
2022-12-08T13:31:50.167Z,53.54
2022-12-08T13:34:22.620Z,53.38
2022-12-08T13:37:04.081Z,53.24
2022-12-08T13:39:35.309Z,53.48
2022-12-08T13:42:04.798Z,53.43
2022-12-08T13:45:19.068Z,53.32
2022-12-08T13:47:33.788Z,53.40
2022-12-08T13:58:36.258Z,53.38
2022-12-08T14:01:06.621Z,53.38
2022-12-08T14:03:35.516Z,53.28
2022-12-08T14:06:13.168Z,53.24
2022-12-08T14:09:05.055Z,53.19
2022-12-08T14:11:35.290Z,53.30
2022-12-08T14:14:04.277Z,53.26
2022-12-08T14:16:34.493Z,53.18
2022-12-08T14:19:05.831Z,53.25
2022-12-08T14:21:36.391Z,53.23
2022-12-08T14:24:04.082Z,53.24
2022-12-08T14:26:33.572Z,53.06
2022-12-08T14:29:01.311Z,52.72
2022-12-08T14:31:29.162Z,53.12
2022-12-08T14:33:56.786Z,53.11
2022-12-08T14:36:24.550Z,53.14
2022-12-08T14:38:53.513Z,52.98
2022-12-08T14:41:26.297Z,53.16
2022-12-08T14:43:59.364Z,52.88
2022-12-08T14:46:26.937Z,53.12
2022-12-08T14:48:56.508Z,53.12
2022-12-08T14:51:27.762Z,53.03
2022-12-08T14:56:20.274Z,53.00
2022-12-08T14:58:48.612Z,53.05
2022-12-08T15:01:18.035Z,52.96
2022-12-08T15:03:50.666Z,52.79
2022-12-08T15:06:18.784Z,52.75
2022-12-08T15:08:53.480Z,52.95
2022-12-08T15:11:35.373Z,52.83
2022-12-08T15:14:02.976Z,52.87
2022-12-08T15:16:32.785Z,52.75
2022-12-08T15:19:06.181Z,52.71
2022-12-08T15:21:38.739Z,52.82
2022-12-08T15:24:06.286Z,52.86
2022-12-08T15:26:39.257Z,52.89
2022-12-08T15:29:11.594Z,52.85
2022-12-08T15:31:39.146Z,53.00
2022-12-08T15:34:06.730Z,52.64
2022-12-08T15:36:34.179Z,52.79
2022-12-08T15:39:01.639Z,52.89
2022-12-08T15:41:29.118Z,52.83
2022-12-08T15:43:58.017Z,52.84
2022-12-08T15:46:25.500Z,52.69
2022-12-08T15:48:57.975Z,52.78
2022-12-08T15:51:25.804Z,52.74
2022-12-08T15:53:53.271Z,52.64
2022-12-08T15:56:28.718Z,52.57
2022-12-08T15:58:58.462Z,52.60
2022-12-08T16:01:26.624Z,52.56
2022-12-08T16:04:47.521Z,52.79
2022-12-08T16:07:19.630Z,52.63
2022-12-08T16:09:30.858Z,52.64
2022-12-08T16:12:16.063Z,52.83
2022-12-08T16:17:32.433Z,52.59
2022-12-08T16:20:00.114Z,52.81
2022-12-08T16:25:20.769Z,52.95
2022-12-08T16:30:38.301Z,52.86
2022-12-08T16:33:05.866Z,52.95
2022-12-08T16:35:33.340Z,52.88
2022-12-08T16:38:00.784Z,52.60
2022-12-08T16:40:28.231Z,52.89
2022-12-08T16:42:54.722Z,52.81
2022-12-08T16:45:23.111Z,52.73
2022-12-08T16:47:52.615Z,52.82
2022-12-08T16:50:21.301Z,52.75
2022-12-08T16:52:48.833Z,52.79
2022-12-08T16:55:17.353Z,52.85
2022-12-08T16:57:44.889Z,52.92
2022-12-08T17:00:13.669Z,52.62
2022-12-08T17:02:41.109Z,52.82
2022-12-08T17:05:11.148Z,52.73
2022-12-08T17:07:38.552Z,52.89
2022-12-08T17:10:07.159Z,52.86
2022-12-08T17:12:35.705Z,52.94
2022-12-08T17:15:03.965Z,52.84
2022-12-08T17:17:32.592Z,52.91
2022-12-08T17:20:00.077Z,52.90
2022-12-08T17:22:28.863Z,52.67
2022-12-08T17:24:56.324Z,52.93
2022-12-08T17:27:23.778Z,52.74
2022-12-08T17:29:51.381Z,52.87
2022-12-08T17:32:19.742Z,52.83
2022-12-08T17:34:47.378Z,52.91
2022-12-08T17:37:14.854Z,52.88
2022-12-08T17:39:43.628Z,52.84
2022-12-08T17:42:11.165Z,52.80
2022-12-08T17:44:38.653Z,52.84
2022-12-08T17:47:06.113Z,52.60
2022-12-08T17:49:33.916Z,52.86
2022-12-08T17:52:02.145Z,52.89
2022-12-08T17:54:29.879Z,52.64
2022-12-08T17:56:58.909Z,52.81
2022-12-08T17:59:26.973Z,52.89
2022-12-08T18:01:54.604Z,52.94
2022-12-08T18:04:22.329Z,53.02
2022-12-08T18:06:49.784Z,53.02
2022-12-08T18:09:17.305Z,52.98
2022-12-08T18:11:46.003Z,52.89
2022-12-08T18:14:15.019Z,53.08
2022-12-08T18:16:43.942Z,53.03
2022-12-08T18:19:11.717Z,53.12
2022-12-08T18:21:39.310Z,53.06
2022-12-08T18:24:07.692Z,52.95
2022-12-08T18:26:35.245Z,52.88
2022-12-08T18:29:02.735Z,52.80
2022-12-08T18:31:31.601Z,52.71
2022-12-08T18:33:59.081Z,52.81
2022-12-08T18:36:26.558Z,52.92
2022-12-08T18:38:54.139Z,52.86
2022-12-08T18:41:23.259Z,52.95
2022-12-08T18:43:50.737Z,53.11
2022-12-08T18:46:18.241Z,52.89
2022-12-08T18:48:48.302Z,52.77
2022-12-08T18:51:16.481Z,52.91
2022-12-08T18:53:44.482Z,53.00
2022-12-08T18:56:21.112Z,52.90
2022-12-08T18:58:48.607Z,52.78
2022-12-08T19:01:16.075Z,52.62
2022-12-08T19:03:58.548Z,52.73
2022-12-08T19:06:32.517Z,52.77
2022-12-08T19:08:59.965Z,52.70
2022-12-08T19:11:28.611Z,52.65
2022-12-08T19:13:56.585Z,52.66
2022-12-08T19:16:24.357Z,52.83
2022-12-08T19:18:51.874Z,52.90
2022-12-08T19:21:20.235Z,52.71
2022-12-08T19:23:49.151Z,52.74
2022-12-08T19:26:17.242Z,52.66
2022-12-08T19:28:44.773Z,52.65
2022-12-08T19:31:12.286Z,52.55
2022-12-08T19:33:39.792Z,52.56
2022-12-08T19:36:07.626Z,52.74
2022-12-08T19:38:55.739Z,52.69
2022-12-08T19:41:42.318Z,52.60
2022-12-08T19:44:34.782Z,52.68
2022-12-08T19:47:02.277Z,52.65
2022-12-08T19:49:29.787Z,52.76
2022-12-08T19:51:57.230Z,52.63
2022-12-08T19:54:24.701Z,52.51
2022-12-08T19:56:53.479Z,52.51
2022-12-08T19:59:20.924Z,52.55
2022-12-08T20:01:49.133Z,52.49
2022-12-08T20:04:16.780Z,52.49
2022-12-08T20:06:44.696Z,52.52
2022-12-08T20:09:12.299Z,52.46
2022-12-08T20:11:39.928Z,52.53
2022-12-08T20:14:08.711Z,52.62
2022-12-08T20:16:36.379Z,52.58
2022-12-08T20:19:03.901Z,52.53
2022-12-08T20:21:31.378Z,52.52
2022-12-08T20:23:58.800Z,52.51
2022-12-08T20:26:26.325Z,52.63
2022-12-08T20:28:53.807Z,52.43
2022-12-08T20:31:23.437Z,52.38
2022-12-08T20:33:50.940Z,52.51
2022-12-08T20:36:19.263Z,52.44
2022-12-08T20:38:46.732Z,52.48
2022-12-08T20:41:15.896Z,52.47
2022-12-08T20:43:43.490Z,52.22
2022-12-08T20:46:11.911Z,52.35
2022-12-08T20:48:40.906Z,52.42
2022-12-08T20:51:08.997Z,52.43
2022-12-08T20:53:36.558Z,52.24
2022-12-08T20:56:04.102Z,52.36
2022-12-08T20:58:31.916Z,52.42
2022-12-08T21:00:59.451Z,52.30
2022-12-08T21:03:27.518Z,52.16
2022-12-08T21:05:56.491Z,52.20
2022-12-08T21:08:25.892Z,52.23
2022-12-08T21:10:54.518Z,52.32
2022-12-08T21:13:22.151Z,52.18
2022-12-08T21:15:49.880Z,52.22
2022-12-08T21:18:17.612Z,52.22
2022-12-08T21:20:45.173Z,52.21
2022-12-08T21:23:14.094Z,52.17
2022-12-08T21:25:42.319Z,52.10
2022-12-08T21:28:09.929Z,52.11
2022-12-08T21:30:38.839Z,52.05
2022-12-08T21:33:06.605Z,52.12
2022-12-08T21:35:34.180Z,52.08
2022-12-08T21:38:01.846Z,52.20
2022-12-08T21:40:30.842Z,52.08
2022-12-08T21:42:58.349Z,52.13
2022-12-08T21:45:25.976Z,51.86
2022-12-08T21:47:54.256Z,52.16
2022-12-08T21:50:21.817Z,52.02
2022-12-08T21:52:50.058Z,52.07
2022-12-08T21:55:18.749Z,51.95
2022-12-08T21:57:47.594Z,52.04
2022-12-08T22:00:16.613Z,52.16
2022-12-08T22:02:44.438Z,51.93
2022-12-08T22:05:12.284Z,51.92
2022-12-08T22:07:40.871Z,51.94
2022-12-08T22:10:10.417Z,51.86
2022-12-08T22:12:38.197Z,51.87
2022-12-08T22:15:08.743Z,51.87
2022-12-08T22:17:37.267Z,52.07
2022-12-08T22:20:06.762Z,51.84
2022-12-08T22:22:35.512Z,51.85
2022-12-08T22:25:03.563Z,51.87
2022-12-08T22:27:31.222Z,51.80
2022-12-08T22:29:59.029Z,51.75
2022-12-08T22:32:28.076Z,51.84
2022-12-08T22:34:55.801Z,51.74
2022-12-08T22:37:23.408Z,51.71
2022-12-08T22:39:51.010Z,51.71
2022-12-08T22:42:19.054Z,51.70
2022-12-08T22:44:46.752Z,51.67
2022-12-08T22:47:14.361Z,51.66
2022-12-08T22:49:43.451Z,51.59
2022-12-08T22:52:11.271Z,51.60
2022-12-08T22:54:39.101Z,51.60
2022-12-08T22:57:06.721Z,51.63
2022-12-08T22:59:34.599Z,51.64
2022-12-08T23:02:02.134Z,51.72
2022-12-08T23:04:29.656Z,51.65
2022-12-08T23:06:58.499Z,51.60
2022-12-08T23:09:25.937Z,51.53
2022-12-08T23:11:53.575Z,51.54
2022-12-08T23:14:21.036Z,51.66
2022-12-08T23:16:48.761Z,51.52
2022-12-08T23:19:16.245Z,51.65
2022-12-08T23:21:44.178Z,51.58
2022-12-08T23:24:12.942Z,51.48
2022-12-08T23:26:40.617Z,51.55
2022-12-08T23:29:08.059Z,51.53
2022-12-08T23:31:35.652Z,51.58
2022-12-08T23:34:03.460Z,51.41
2022-12-08T23:36:31.550Z,51.53
2022-12-08T23:38:59.204Z,51.44
2022-12-08T23:41:28.076Z,51.53
2022-12-08T23:43:55.581Z,51.40
2022-12-08T23:46:23.532Z,51.30
2022-12-08T23:48:51.391Z,51.38
2022-12-08T23:51:19.077Z,51.41
2022-12-08T23:53:46.833Z,51.48
2022-12-08T23:56:15.139Z,51.58
2022-12-08T23:58:44.151Z,51.33
